createdAt,value
2023-03-26T00:01:27.753Z,14.98
2023-03-26T00:03:55.349Z,9.75
2023-03-26T00:06:24.950Z,13.43
2023-03-26T00:08:53.199Z,14.15
2023-03-26T00:11:21.928Z,10.60
2023-03-26T00:13:49.021Z,14.82
2023-03-26T00:16:19.786Z,20.13
2023-03-26T00:21:16.410Z,13.82
2023-03-26T00:23:44.039Z,12.10
2023-03-26T00:26:11.286Z,17.55
2023-03-26T00:28:40.569Z,13.52
2023-03-26T00:31:11.350Z,11.48
2023-03-26T00:36:10.104Z,12.80
2023-03-26T00:38:39.193Z,14.35
2023-03-26T00:41:17.990Z,8.80
2023-03-26T00:43:46.717Z,18.02
2023-03-26T00:46:13.959Z,17.42
2023-03-26T00:48:45.800Z,12.82
2023-03-26T00:51:15.669Z,9.82
2023-03-26T00:53:44.926Z,13.15
2023-03-26T00:56:12.200Z,12.95
2023-03-26T00:58:39.397Z,13.50
2023-03-26T01:01:09.739Z,15.23
2023-03-26T01:03:38.675Z,14.32
2023-03-26T01:06:12.840Z,12.90
2023-03-26T01:08:43.063Z,11.85
2023-03-26T01:11:14.624Z,14.30
2023-03-26T01:13:48.472Z,14.43
2023-03-26T01:16:27.020Z,13.93
2023-03-26T01:18:54.623Z,16.38
2023-03-26T01:21:28.718Z,10.57
2023-03-26T01:23:59.827Z,15.00
2023-03-26T01:26:29.718Z,13.20
2023-03-26T01:29:02.426Z,19.83
2023-03-26T01:32:02.892Z,14.68
2023-03-26T01:34:30.739Z,21.25
2023-03-26T01:37:00.698Z,19.60
2023-03-26T01:39:39.018Z,19.73
2023-03-26T01:42:19.366Z,13.07
2023-03-26T01:44:55.416Z,14.70
2023-03-26T01:47:23.172Z,11.93
2023-03-26T01:49:49.926Z,16.83
2023-03-26T01:52:20.877Z,13.55
2023-03-26T01:54:48.273Z,15.52
2023-03-26T01:57:27.074Z,17.48
2023-03-26T02:00:11.824Z,22.52
2023-03-26T02:02:44.154Z,14.32
2023-03-26T02:05:29.920Z,16.35
2023-03-26T02:08:05.911Z,23.27
2023-03-26T02:10:38.223Z,18.85
2023-03-26T02:13:06.210Z,13.48
2023-03-26T02:15:33.590Z,15.80
2023-03-26T02:18:02.032Z,12.23
2023-03-26T02:20:30.233Z,15.80
2023-03-26T02:22:57.870Z,8.75
2023-03-26T02:25:25.243Z,15.05
2023-03-26T02:27:53.115Z,22.48
2023-03-26T02:30:29.768Z,15.60
2023-03-26T02:33:00.055Z,15.63
2023-03-26T02:35:34.687Z,14.48
2023-03-26T02:38:02.881Z,11.45
2023-03-26T02:40:29.737Z,10.32
2023-03-26T02:42:58.970Z,13.75
2023-03-26T02:45:28.003Z,12.82
2023-03-26T02:48:06.548Z,15.50
2023-03-26T02:50:56.501Z,14.85
2023-03-26T02:53:47.454Z,10.98
2023-03-26T02:59:31.881Z,8.13
2023-03-26T03:02:18.344Z,13.73
2023-03-26T03:04:46.712Z,12.77
2023-03-26T03:07:17.962Z,11.52
2023-03-26T03:09:45.597Z,10.27
2023-03-26T03:12:42.720Z,11.70
2023-03-26T03:15:10.257Z,12.50
2023-03-26T03:17:37.128Z,16.30
2023-03-26T03:20:05.369Z,15.05
2023-03-26T03:22:34.845Z,18.60
2023-03-26T03:25:02.774Z,10.70
2023-03-26T03:27:29.809Z,10.20
2023-03-26T03:30:05.450Z,8.77
2023-03-26T03:32:51.125Z,9.60
2023-03-26T03:35:22.867Z,9.57
2023-03-26T03:37:54.303Z,11.60
2023-03-26T03:40:21.112Z,10.02
2023-03-26T03:42:48.563Z,12.80
2023-03-26T03:45:24.410Z,12.57
2023-03-26T03:48:06.682Z,23.20
2023-03-26T03:50:39.562Z,11.23
2023-03-26T03:53:20.617Z,13.60
2023-03-26T03:55:54.399Z,11.75
2023-03-26T03:58:28.439Z,16.92
2023-03-26T04:01:04.450Z,11.95
2023-03-26T04:04:04.013Z,13.90
2023-03-26T04:06:45.592Z,21.85
2023-03-26T04:09:14.784Z,13.20
2023-03-26T04:11:43.168Z,20.60
2023-03-26T04:14:19.889Z,27.65
2023-03-26T04:17:06.909Z,14.50
2023-03-26T04:19:37.507Z,14.52
2023-03-26T04:22:07.520Z,11.43
2023-03-26T04:24:40.684Z,14.57
2023-03-26T04:27:35.412Z,14.90
2023-03-26T04:30:23.357Z,15.88
2023-03-26T04:33:04.195Z,13.07
2023-03-26T04:35:36.949Z,11.02
2023-03-26T04:38:06.604Z,12.45
2023-03-26T04:40:39.177Z,13.27
2023-03-26T04:43:35.642Z,9.88
2023-03-26T04:46:23.516Z,17.45
2023-03-26T04:49:00.746Z,11.73
2023-03-26T04:51:38.196Z,11.45
2023-03-26T04:54:14.401Z,14.05
2023-03-26T04:56:59.051Z,8.80
2023-03-26T04:59:37.215Z,14.45
2023-03-26T05:02:08.442Z,11.52
2023-03-26T05:04:46.300Z,16.05
2023-03-26T05:07:19.988Z,19.02
2023-03-26T05:09:57.598Z,13.25
2023-03-26T05:12:46.560Z,19.05
2023-03-26T05:15:17.901Z,18.08
2023-03-26T05:17:48.533Z,14.57
2023-03-26T05:20:28.041Z,14.63
2023-03-26T05:22:54.823Z,13.98
2023-03-26T05:25:26.049Z,19.90
2023-03-26T05:27:53.682Z,10.15
2023-03-26T05:30:23.893Z,13.60
2023-03-26T05:32:56.811Z,15.73
2023-03-26T05:35:28.872Z,15.98
2023-03-26T05:37:56.163Z,13.82
2023-03-26T05:40:24.466Z,16.67
2023-03-26T05:42:59.743Z,9.10
2023-03-26T05:45:35.692Z,15.05
2023-03-26T05:48:15.424Z,20.02
2023-03-26T05:50:42.203Z,14.38
2023-03-26T05:53:09.204Z,14.60
2023-03-26T05:55:58.028Z,14.95
2023-03-26T05:58:43.656Z,10.32
2023-03-26T06:01:31.777Z,13.13
2023-03-26T06:04:21.532Z,14.20
2023-03-26T06:07:10.106Z,14.88
2023-03-26T06:09:39.807Z,13.27
2023-03-26T06:12:08.439Z,20.15
2023-03-26T06:14:36.374Z,15.85
2023-03-26T06:17:10.814Z,14.00
2023-03-26T06:20:10.746Z,13.02
2023-03-26T06:25:37.854Z,16.63
2023-03-26T06:28:13.320Z,20.83
2023-03-26T06:31:01.652Z,15.65
2023-03-26T06:33:35.878Z,16.35
2023-03-26T06:36:03.013Z,15.05
2023-03-26T06:38:29.771Z,18.23
2023-03-26T06:41:03.502Z,9.93
2023-03-26T06:43:50.223Z,18.25
2023-03-26T06:46:46.117Z,11.90
2023-03-26T06:49:36.119Z,14.77
2023-03-26T06:52:16.575Z,15.68
2023-03-26T06:55:14.759Z,12.45
2023-03-26T06:58:07.390Z,12.40
2023-03-26T07:00:55.333Z,15.98
2023-03-26T07:03:45.351Z,17.08
2023-03-26T07:06:30.909Z,15.35
2023-03-26T07:09:15.975Z,11.60
2023-03-26T07:12:15.849Z,15.48
2023-03-26T07:15:03.442Z,17.38
2023-03-26T07:17:48.899Z,9.88
2023-03-26T07:20:22.175Z,15.20
2023-03-26T07:22:49.553Z,13.00
2023-03-26T07:25:33.562Z,12.55
2023-03-26T07:29:04.650Z,12.85
2023-03-26T07:31:52.714Z,13.23
2023-03-26T07:34:49.138Z,14.70
2023-03-26T07:37:31.789Z,13.63
2023-03-26T07:40:54.829Z,12.65
2023-03-26T07:43:33.217Z,13.52
2023-03-26T07:46:29.043Z,13.32
2023-03-26T07:49:20.494Z,14.18
2023-03-26T07:52:01.379Z,12.65
2023-03-26T07:54:47.225Z,11.65
2023-03-26T07:57:40.921Z,12.32
2023-03-26T08:00:41.500Z,13.70
2023-03-26T08:06:03.786Z,9.35
2023-03-26T08:09:26.743Z,8.15
2023-03-26T08:12:23.059Z,9.70
2023-03-26T08:15:03.405Z,9.73
2023-03-26T08:17:31.742Z,12.63
2023-03-26T08:20:11.060Z,9.90
2023-03-26T08:22:43.385Z,11.77
2023-03-26T08:25:47.184Z,14.98
2023-03-26T08:28:53.029Z,8.68
2023-03-26T08:31:33.831Z,11.85
2023-03-26T08:34:01.541Z,10.98
2023-03-26T08:36:28.536Z,9.82
2023-03-26T08:38:55.580Z,14.32
2023-03-26T08:41:42.376Z,14.50
2023-03-26T08:44:13.767Z,13.32
2023-03-26T08:46:53.011Z,7.82
2023-03-26T08:50:04.019Z,10.85
2023-03-26T08:52:58.640Z,11.32
2023-03-26T08:55:49.674Z,10.30
2023-03-26T08:58:37.772Z,16.05
2023-03-26T09:01:22.716Z,7.03
2023-03-26T09:04:05.637Z,8.90
2023-03-26T09:06:51.205Z,10.35
2023-03-26T09:09:48.692Z,4.63
2023-03-26T09:12:51.115Z,8.82
2023-03-26T09:15:53.181Z,7.38
2023-03-26T09:18:59.488Z,7.10
2023-03-26T09:21:47.905Z,11.40
2023-03-26T09:24:47.547Z,10.10
2023-03-26T09:27:39.512Z,13.40
2023-03-26T09:30:20.460Z,9.10
2023-03-26T09:33:03.522Z,10.43
2023-03-26T09:35:53.572Z,9.98
2023-03-26T09:38:41.882Z,7.45
2023-03-26T09:41:35.454Z,7.63
2023-03-26T09:44:11.604Z,8.38
2023-03-26T09:47:03.621Z,9.50
2023-03-26T09:49:30.445Z,8.18
2023-03-26T09:52:15.997Z,10.05
2023-03-26T09:54:48.615Z,7.20
2023-03-26T09:57:24.285Z,7.97
2023-03-26T10:00:21.801Z,7.50
2023-03-26T10:03:05.697Z,4.32
2023-03-26T10:06:11.821Z,7.65
2023-03-26T10:09:29.168Z,8.20
2023-03-26T10:12:22.373Z,11.88
2023-03-26T10:15:18.443Z,6.80
2023-03-26T10:18:26.712Z,7.63
2023-03-26T10:21:04.912Z,5.28
2023-03-26T10:23:57.377Z,4.95
2023-03-26T10:26:41.841Z,7.30
2023-03-26T10:29:43.756Z,6.97
2023-03-26T10:32:19.515Z,6.45
2023-03-26T10:35:21.381Z,4.57
2023-03-26T10:38:16.117Z,4.47
2023-03-26T10:41:00.640Z,8.48
2023-03-26T10:43:42.703Z,7.55
2023-03-26T10:46:26.695Z,7.65
2023-03-26T10:49:16.864Z,12.27
2023-03-26T10:52:03.300Z,8.05
2023-03-26T10:55:07.145Z,9.48
2023-03-26T10:57:45.868Z,9.30
2023-03-26T11:00:17.688Z,12.60
2023-03-26T11:03:13.524Z,8.93
2023-03-26T11:05:55.479Z,8.52
2023-03-26T11:08:41.477Z,6.30
2023-03-26T11:11:08.196Z,5.40
2023-03-26T11:13:58.626Z,7.25
2023-03-26T11:16:48.432Z,9.15
2023-03-26T11:19:35.928Z,8.27
2023-03-26T11:22:08.802Z,8.75
2023-03-26T11:24:50.360Z,8.02
2023-03-26T11:27:26.438Z,10.85
2023-03-26T11:30:07.713Z,8.30
2023-03-26T11:32:48.350Z,5.85
2023-03-26T11:35:41.692Z,5.30
2023-03-26T11:38:32.871Z,5.65
2023-03-26T11:41:02.108Z,8.45
2023-03-26T11:43:52.590Z,8.35
2023-03-26T11:46:23.061Z,10.07
2023-03-26T11:48:59.499Z,7.38
2023-03-26T11:51:34.271Z,5.22
2023-03-26T11:54:06.081Z,6.50
2023-03-26T11:56:41.227Z,8.57
2023-03-26T11:59:45.148Z,6.35
2023-03-26T12:02:29.896Z,4.80
2023-03-26T12:05:17.956Z,8.45
2023-03-26T12:07:52.426Z,7.10
2023-03-26T12:10:26.630Z,7.07
2023-03-26T12:13:02.900Z,9.32
2023-03-26T12:15:32.170Z,8.27
2023-03-26T12:18:17.883Z,4.43
2023-03-26T12:20:45.082Z,8.38
2023-03-26T12:23:35.425Z,9.73
2023-03-26T12:26:15.011Z,8.35
2023-03-26T12:28:50.410Z,6.10
2023-03-26T12:31:19.147Z,5.47
2023-03-26T12:34:04.939Z,7.82
2023-03-26T12:36:33.848Z,8.57
2023-03-26T12:40:09.766Z,6.75
2023-03-26T12:44:45.117Z,7.10
2023-03-26T12:45:23.946Z,6.10
2023-03-26T12:48:00.516Z,6.40
2023-03-26T12:50:54.729Z,13.07
2023-03-26T12:53:29.115Z,9.93
2023-03-26T12:56:01.345Z,8.13
2023-03-26T12:58:38.348Z,12.57
2023-03-26T13:01:06.187Z,9.15
2023-03-26T13:03:55.350Z,13.05
2023-03-26T13:06:59.112Z,5.88
2023-03-26T13:09:44.763Z,7.18
2023-03-26T13:12:20.110Z,11.48
2023-03-26T13:15:06.861Z,8.55
2023-03-26T13:17:43.938Z,10.77
2023-03-26T13:20:27.160Z,9.32
2023-03-26T13:25:40.115Z,7.20
2023-03-26T13:28:31.404Z,9.60
2023-03-26T13:31:16.718Z,6.03
2023-03-26T13:33:49.425Z,5.93
2023-03-26T13:36:36.103Z,11.20
2023-03-26T13:39:37.472Z,8.48
2023-03-26T13:42:18.377Z,9.77
2023-03-26T13:45:13.884Z,12.82
2023-03-26T13:47:48.411Z,9.45
2023-03-26T13:50:29.098Z,7.75
2023-03-26T13:53:17.698Z,8.98
2023-03-26T13:55:51.474Z,8.15
2023-03-26T13:58:52.402Z,7.82
2023-03-26T14:01:46.117Z,8.63
2023-03-26T14:04:23.724Z,10.85
2023-03-26T14:06:57.829Z,10.68
2023-03-26T14:09:46.583Z,9.75
2023-03-26T14:12:34.250Z,7.90
2023-03-26T14:15:04.315Z,5.68
2023-03-26T14:17:41.328Z,7.63
2023-03-26T14:20:29.654Z,6.55
2023-03-26T14:23:07.942Z,10.30
2023-03-26T14:25:46.897Z,9.98
2023-03-26T14:28:47.569Z,8.70
2023-03-26T14:31:46.339Z,9.75
2023-03-26T14:34:29.049Z,7.00
2023-03-26T14:37:18.894Z,10.00
2023-03-26T14:40:31.585Z,6.82
2023-03-26T14:43:05.526Z,7.30
2023-03-26T14:45:44.498Z,9.98
2023-03-26T14:48:29.986Z,14.95
2023-03-26T14:51:09.218Z,11.48
2023-03-26T14:53:40.764Z,12.13
2023-03-26T14:56:22.027Z,16.65
2023-03-26T14:59:21.751Z,18.67
2023-03-26T15:02:17.610Z,16.48
2023-03-26T15:05:14.599Z,15.90
2023-03-26T15:08:07.030Z,14.02
2023-03-26T15:11:08.932Z,18.60
2023-03-26T15:16:39.827Z,19.73
2023-03-26T15:19:28.711Z,19.48
2023-03-26T15:22:33.912Z,16.08
2023-03-26T15:25:33.134Z,19.98
2023-03-26T15:28:25.915Z,15.48
2023-03-26T15:31:37.253Z,22.40
2023-03-26T15:34:23.355Z,15.13
2023-03-26T15:36:51.042Z,15.65
2023-03-26T15:40:07.788Z,14.50
2023-03-26T15:43:01.504Z,18.90
2023-03-26T15:45:34.075Z,16.08
2023-03-26T15:48:01.482Z,19.23
2023-03-26T15:50:38.045Z,14.90
2023-03-26T15:53:38.925Z,15.82
2023-03-26T15:56:36.773Z,13.13
2023-03-26T15:59:11.350Z,13.93
2023-03-26T16:02:04.086Z,16.73
2023-03-26T16:04:50.322Z,18.85
2023-03-26T16:07:21.920Z,17.90
2023-03-26T16:10:09.346Z,18.75
2023-03-26T16:13:14.544Z,19.15
2023-03-26T16:15:42.812Z,15.07
2023-03-26T16:18:22.417Z,13.60
2023-03-26T16:20:55.141Z,22.10
2023-03-26T16:23:27.430Z,17.50
2023-03-26T16:25:59.364Z,19.10
2023-03-26T16:28:32.404Z,30.52
2023-03-26T16:31:10.604Z,22.42
2023-03-26T16:34:07.901Z,23.98
2023-03-26T16:36:37.229Z,16.70
2023-03-26T16:39:07.765Z,14.25
2023-03-26T16:41:50.096Z,21.33
2023-03-26T16:44:27.571Z,19.17
2023-03-26T16:47:14.873Z,16.48
2023-03-26T16:50:10.764Z,20.10
2023-03-26T16:52:56.160Z,21.17
2023-03-26T16:55:43.836Z,18.88
2023-03-26T16:58:45.617Z,17.85
2023-03-26T17:01:43.695Z,18.70
2023-03-26T17:04:20.529Z,18.17
2023-03-26T17:07:43.126Z,19.30
2023-03-26T17:10:30.846Z,23.73
2023-03-26T17:13:11.818Z,19.48
2023-03-26T17:15:59.719Z,32.53
2023-03-26T17:18:45.672Z,22.95
2023-03-26T17:21:24.551Z,26.77
2023-03-26T17:24:00.166Z,24.52
2023-03-26T17:26:35.395Z,34.72
2023-03-26T17:29:22.902Z,24.52
2023-03-26T17:32:01.173Z,29.25
2023-03-26T17:34:40.313Z,22.30
2023-03-26T17:37:28.312Z,32.53
2023-03-26T17:39:57.864Z,29.65
2023-03-26T17:42:37.683Z,33.58
2023-03-26T17:45:20.544Z,27.30
2023-03-26T17:47:54.032Z,27.92
2023-03-26T17:50:34.838Z,24.38
2023-03-26T17:53:19.599Z,26.65
2023-03-26T17:55:49.570Z,23.30
2023-03-26T17:58:20.729Z,26.10
2023-03-26T18:00:52.832Z,28.67
2023-03-26T18:03:34.438Z,33.78
2023-03-26T18:06:09.264Z,26.45
2023-03-26T18:08:48.972Z,22.98
2023-03-26T18:11:18.571Z,30.27
2023-03-26T18:13:56.937Z,29.85
2023-03-26T18:16:30.949Z,22.95
2023-03-26T18:19:00.720Z,16.00
2023-03-26T18:21:37.338Z,26.20
2023-03-26T18:24:06.988Z,20.42
2023-03-26T18:26:41.094Z,18.88
2023-03-26T18:29:24.672Z,26.30
2023-03-26T18:31:58.400Z,26.20
2023-03-26T18:34:27.228Z,22.13
2023-03-26T18:37:10.958Z,17.02
2023-03-26T18:39:38.466Z,24.50
2023-03-26T18:42:06.919Z,22.13
2023-03-26T18:44:39.045Z,26.60
2023-03-26T18:47:07.426Z,59.28
2023-03-26T18:49:36.591Z,38.33
2023-03-26T18:52:03.718Z,86.38
2023-03-26T18:54:35.592Z,39.88
2023-03-26T18:57:15.232Z,36.50
2023-03-26T18:59:45.466Z,22.30
2023-03-26T19:02:15.058Z,20.20
2023-03-26T19:04:46.276Z,16.90
2023-03-26T19:07:17.255Z,23.50
2023-03-26T19:09:44.922Z,18.98
2023-03-26T19:12:24.037Z,18.35
2023-03-26T19:15:03.500Z,25.33
2023-03-26T19:17:36.827Z,23.92
2023-03-26T19:20:07.655Z,47.90
2023-03-26T19:25:02.738Z,22.75
2023-03-26T19:27:29.580Z,19.10
2023-03-26T19:29:56.508Z,14.40
2023-03-26T19:32:34.728Z,18.00
2023-03-26T19:35:04.207Z,19.60
2023-03-26T19:37:31.537Z,13.85
2023-03-26T19:40:12.802Z,16.95
2023-03-26T19:42:43.001Z,15.13
2023-03-26T19:45:23.294Z,17.10
2023-03-26T19:48:00.367Z,17.15
2023-03-26T19:50:33.799Z,12.40
2023-03-26T19:53:16.104Z,12.27
2023-03-26T19:55:57.409Z,18.25
2023-03-26T19:58:26.088Z,15.13
2023-03-26T20:00:53.242Z,13.45
2023-03-26T20:03:29.481Z,17.20
2023-03-26T20:05:56.659Z,8.45
2023-03-26T20:08:27.079Z,15.80
2023-03-26T20:10:56.620Z,11.80
2023-03-26T20:13:23.565Z,12.18
2023-03-26T20:18:45.329Z,11.27
2023-03-26T20:21:12.894Z,9.60
2023-03-26T20:23:40.930Z,9.05
2023-03-26T20:26:12.864Z,10.82
2023-03-26T20:28:47.742Z,11.75
2023-03-26T20:31:19.922Z,13.25
2023-03-26T20:33:48.063Z,16.08
2023-03-26T20:36:33.670Z,10.82
2023-03-26T20:39:06.165Z,11.63
2023-03-26T20:41:34.552Z,9.52
2023-03-26T20:44:03.750Z,11.73
2023-03-26T20:46:31.916Z,15.02
2023-03-26T20:48:59.984Z,14.48
2023-03-26T20:51:28.842Z,13.98
2023-03-26T20:53:56.167Z,11.00
2023-03-26T20:56:23.614Z,8.90
2023-03-26T20:59:03.627Z,9.75
2023-03-26T21:01:38.129Z,8.13
2023-03-26T21:04:05.995Z,12.45
2023-03-26T21:06:32.938Z,9.93
2023-03-26T21:09:00.046Z,12.65
2023-03-26T21:11:46.640Z,11.18
2023-03-26T21:14:18.569Z,11.82
2023-03-26T21:16:45.732Z,12.10
2023-03-26T21:19:14.755Z,10.23
2023-03-26T21:21:59.201Z,10.70
2023-03-26T21:24:44.264Z,8.75
2023-03-26T21:27:28.845Z,12.13
2023-03-26T21:29:56.387Z,13.40
2023-03-26T21:32:23.540Z,10.32
2023-03-26T21:34:58.571Z,9.63
2023-03-26T21:37:27.065Z,10.90
2023-03-26T21:39:54.364Z,8.60
2023-03-26T21:42:21.535Z,9.77
2023-03-26T21:44:48.455Z,8.60
2023-03-26T21:47:15.576Z,9.57
2023-03-26T21:49:42.478Z,9.45
2023-03-26T21:52:15.013Z,7.47
2023-03-26T21:54:43.194Z,14.45
2023-03-26T21:57:15.990Z,16.05
2023-03-26T22:00:11.424Z,12.70
2023-03-26T22:03:29.192Z,13.98
2023-03-26T22:06:22.334Z,4.70
2023-03-26T22:08:49.319Z,11.15
2023-03-26T22:11:16.247Z,10.38
2023-03-26T22:13:43.696Z,13.68
2023-03-26T22:16:10.875Z,14.43
2023-03-26T22:18:38.062Z,13.82
2023-03-26T22:21:05.945Z,13.57
2023-03-26T22:23:36.615Z,11.75
2023-03-26T22:26:05.032Z,13.88
2023-03-26T22:28:32.279Z,11.85
2023-03-26T22:30:59.475Z,14.05
2023-03-26T22:33:26.818Z,14.15
2023-03-26T22:35:56.491Z,8.77
2023-03-26T22:38:23.730Z,11.70
2023-03-26T22:40:57.794Z,10.32
2023-03-26T22:43:24.927Z,11.38
2023-03-26T22:45:53.697Z,10.02
2023-03-26T22:48:23.917Z,10.48
2023-03-26T22:51:05.668Z,11.30
2023-03-26T22:53:32.667Z,10.52
2023-03-26T22:56:00.386Z,10.80
2023-03-26T22:58:28.229Z,11.80
2023-03-26T23:01:20.330Z,7.15
2023-03-26T23:03:47.344Z,11.13
2023-03-26T23:06:14.248Z,12.45
2023-03-26T23:08:41.265Z,10.02
2023-03-26T23:11:13.631Z,10.57
2023-03-26T23:13:41.675Z,12.77
2023-03-26T23:16:10.234Z,10.88
2023-03-26T23:18:38.226Z,9.90
2023-03-26T23:21:12.044Z,12.85
2023-03-26T23:23:39.861Z,9.52
2023-03-26T23:26:07.141Z,7.28
2023-03-26T23:28:35.167Z,15.25
2023-03-26T23:31:07.532Z,9.77
2023-03-26T23:33:36.356Z,8.52
2023-03-26T23:36:09.055Z,11.57
2023-03-26T23:38:43.742Z,8.35
2023-03-26T23:41:15.358Z,11.38
2023-03-26T23:43:53.197Z,16.17
2023-03-26T23:46:23.622Z,15.15
2023-03-26T23:48:53.592Z,18.40
2023-03-26T23:51:21.467Z,9.85
2023-03-26T23:53:49.524Z,9.82
2023-03-26T23:56:17.505Z,12.07
2023-03-26T23:58:44.594Z,9.82
